Wahpeton, MN

5:15 AM CST on November 15, 2019 (GMT -0600)
Stern

Weather History for KBWP - September, 2019

Change the Weather History Date:

Monday, September 16, 2019

  Actual Average (WUND) Record (WUND)
Temperature  
Mean Temperature 74 °F -  
Max Temperature 86 °F - - (-1)
Min Temperature 62 °F - - (-1)
Cooling Degree Days 9    
Growing Degree Days 24 (Base 50)    
Moisture  
Dew Point 65 °F    
Average Humidity 78    
Maximum Humidity 94    
Minimum Humidity 55    
Precipitation  
Precipitation 0.00 in - - ()
Sea Level Pressure  
Sea Level Pressure 29.85 in    
Wind  
Wind Speed 12 mph ()    
Max Wind Speed 21 mph    
Max Gust Speed 26 mph    
Visibility 10.0 miles    
Events      
Averages and records for this station are not official NWS values.
T = Trace of Precipitation, MM = Missing Value Source: Averaged Metar Reports

Daily Weather History Graph

Daily Weather History Graph

Search for Another Location

Airport or City:

Astronomy

Sep. 16, 2019 Rise Set
Actual Time 7:05 AM CDT 7:36 PM CDT
Civil Twilight 6:35 AM CDT 8:06 PM CDT
Nautical Twilight 5:59 AM CDT 8:41 PM CDT
Astronomical Twilight 5:22 AM CDT 9:18 PM CDT
Moon 9:04 PM CDT (9/16) 9:18 AM CDT (9/16)
Length of Visible Light 13h 31m
Length of Day
12h 30m
Waning Gibbous, 94% of the Moon is Illuminated
Sep 16
Waning Gibbous
Sep 21
Last Quarter
Sep 28
New
Oct 5
First Quarter
Oct 13
Full

Hourly Weather History & Observations

Time (CDT) Temp. Heat Index Dew Point Humidity Pressure Visibility Wind Dir Wind Speed Gust Speed Precip Events Conditions
12:15 AM 64.4 °F - 60.8 °F 88% 29.91 in 10.0 mi SSE 9.2 mph - N/A   Clear
12:35 AM 64.4 °F - 60.8 °F 88% 29.91 in 10.0 mi SE 10.4 mph - N/A   Clear
12:55 AM 64.4 °F - 60.8 °F 88% 29.90 in 10.0 mi SE 9.2 mph - N/A   Clear
1:15 AM 64.4 °F - 60.8 °F 88% 29.90 in 10.0 mi SE 9.2 mph - N/A   Clear
1:35 AM 64.4 °F - 60.8 °F 88% 29.90 in 10.0 mi SE 11.5 mph - N/A   Clear
1:55 AM 64.4 °F - 60.8 °F 88% 29.90 in 10.0 mi SE 11.5 mph - N/A   Clear
2:15 AM 64.4 °F - 60.8 °F 88% 29.91 in 10.0 mi SE 9.2 mph - N/A   Clear
2:35 AM 64.4 °F - 60.8 °F 88% 29.91 in 10.0 mi SSE 9.2 mph - N/A   Clear
2:55 AM 62.6 °F - 60.8 °F 94% 29.90 in 10.0 mi SE 9.2 mph - N/A   Clear
3:15 AM 62.6 °F - 60.8 °F 94% 29.90 in 10.0 mi SE 9.2 mph - N/A   Clear
3:35 AM 64.4 °F - 60.8 °F 88% 29.89 in 10.0 mi SE 11.5 mph - N/A   Clear
3:55 AM 64.4 °F - 60.8 °F 88% 29.89 in 10.0 mi SE 11.5 mph - N/A   Clear
4:15 AM 64.4 °F - 60.8 °F 88% 29.89 in 10.0 mi SE 11.5 mph - N/A   Clear
4:35 AM 64.4 °F - 60.8 °F 88% 29.88 in 10.0 mi SE 11.5 mph - N/A   Clear
4:55 AM 64.4 °F - 60.8 °F 88% 29.88 in 10.0 mi SE 12.7 mph - N/A   Clear
5:15 AM 64.4 °F - 60.8 °F 88% 29.87 in 10.0 mi SE 11.5 mph - N/A   Clear
5:35 AM 64.4 °F - 60.8 °F 88% 29.87 in 10.0 mi SE 10.4 mph - N/A   Clear
5:55 AM 64.4 °F - 60.8 °F 88% 29.87 in 10.0 mi SE 12.7 mph 17.3 mph N/A   Clear
6:15 AM 64.4 °F - 60.8 °F 88% 29.86 in 10.0 mi SE 12.7 mph - N/A   Clear
6:35 AM 64.4 °F - 60.8 °F 88% 29.86 in 10.0 mi SSE 13.8 mph - N/A   Clear
6:55 AM 64.4 °F - 60.8 °F 88% 29.86 in 10.0 mi SE 12.7 mph - N/A   Clear
7:15 AM 64.4 °F - 60.8 °F 88% 29.86 in 10.0 mi SE 13.8 mph 18.4 mph N/A   Clear
7:35 AM 64.4 °F - 60.8 °F 88% 29.86 in 10.0 mi SSE 12.7 mph - N/A   Clear
7:55 AM 64.4 °F - 60.8 °F 88% 29.86 in 10.0 mi SSE 13.8 mph - N/A   Clear
8:15 AM 64.4 °F - 60.8 °F 88% 29.86 in 10.0 mi SSE 10.4 mph 16.1 mph N/A   Clear
8:35 AM 68.0 °F - 62.6 °F 83% 29.86 in 10.0 mi SSE 12.7 mph - N/A   Clear
8:55 AM 68.0 °F - 62.6 °F 83% 29.86 in 10.0 mi SSE 13.8 mph - N/A   Clear
9:15 AM 69.8 °F - 62.6 °F 78% 29.86 in 10.0 mi SSE 15.0 mph - N/A   Clear
9:35 AM 69.8 °F - 62.6 °F 78% 29.86 in 10.0 mi SSE 15.0 mph 21.9 mph N/A   Clear
9:55 AM 71.6 °F - 64.4 °F 78% 29.85 in 10.0 mi SSE 19.6 mph 23.0 mph N/A   Clear
10:15 AM 73.4 °F - 64.4 °F 73% 29.85 in 10.0 mi SSE 16.1 mph - N/A   Clear
10:35 AM 73.4 °F - 64.4 °F 73% 29.85 in 10.0 mi SSE 19.6 mph 24.2 mph N/A   Clear
10:55 AM 75.2 °F - 66.2 °F 73% 29.84 in 10.0 mi SSE 15.0 mph - N/A   Clear
11:15 AM 75.2 °F - 64.4 °F 69% 29.84 in 10.0 mi SSE 17.3 mph 23.0 mph N/A   Clear
11:35 AM 75.2 °F - 64.4 °F 69% 29.85 in 10.0 mi SSE 16.1 mph - N/A   Clear
11:55 AM 77.0 °F - 66.2 °F 69% 29.85 in 10.0 mi SSE 16.1 mph 20.7 mph N/A   Clear
12:15 PM 78.8 °F - 68.0 °F 69% 29.84 in 10.0 mi SSE 15.0 mph 20.7 mph N/A   Clear
12:35 PM 80.6 °F 83.2 °F 68.0 °F 65% 29.84 in 10.0 mi SSE 13.8 mph 20.7 mph N/A   Clear
12:55 PM 80.6 °F 82.7 °F 66.2 °F 61% 29.84 in 10.0 mi SSE 19.6 mph 23.0 mph N/A   Clear
1:15 PM 80.6 °F 83.2 °F 68.0 °F 65% 29.84 in 10.0 mi SSE 18.4 mph - N/A   Clear
1:35 PM 80.6 °F 83.2 °F 68.0 °F 65% 29.83 in 10.0 mi South 20.7 mph 25.3 mph N/A   Clear
1:55 PM 80.6 °F 83.2 °F 68.0 °F 65% 29.82 in 10.0 mi SSE 17.3 mph 24.2 mph N/A   Clear
2:15 PM 82.4 °F 86.3 °F 69.8 °F 66% 29.82 in 10.0 mi SSE 15.0 mph 20.7 mph N/A   Clear
2:35 PM 82.4 °F 85.4 °F 68.0 °F 62% 29.82 in 10.0 mi SSE 17.3 mph - N/A   Clear
2:55 PM 86.0 °F 90.4 °F 69.8 °F 58% 29.81 in 10.0 mi SSE 17.3 mph - N/A   Clear
3:15 PM 86.0 °F 89.4 °F 68.0 °F 55% 29.81 in 10.0 mi SSE 17.3 mph 24.2 mph N/A   Clear
3:35 PM 84.2 °F 87.3 °F 68.0 °F 58% 29.81 in 10.0 mi SSE 16.1 mph - N/A   Clear
3:55 PM 86.0 °F 89.4 °F 68.0 °F 55% 29.81 in 10.0 mi SSE 17.3 mph 25.3 mph N/A   Clear
4:15 PM 84.2 °F 88.4 °F 69.8 °F 62% 29.81 in 10.0 mi SSE 19.6 mph 24.2 mph N/A   Clear
4:55 PM 82.4 °F 86.3 °F 69.8 °F 66% 29.81 in 10.0 mi SSE 19.6 mph 26.5 mph N/A   Clear
5:15 PM 82.4 °F 86.3 °F 69.8 °F 66% 29.81 in 10.0 mi SSE 16.1 mph - N/A   Clear
5:35 PM 82.4 °F 86.3 °F 69.8 °F 66% 29.80 in 10.0 mi SSE 15.0 mph - N/A   Clear
5:55 PM 80.6 °F 83.9 °F 69.8 °F 70% 29.80 in 10.0 mi SSE 15.0 mph 19.6 mph N/A   Clear
6:15 PM 80.6 °F 83.9 °F 69.8 °F 70% 29.81 in 10.0 mi SSE 12.7 mph 18.4 mph N/A   Clear
6:35 PM 80.6 °F 83.9 °F 69.8 °F 70% 29.81 in 10.0 mi SSE 12.7 mph - N/A   Clear
6:55 PM 78.8 °F - 69.8 °F 74% 29.81 in 10.0 mi SSE 10.4 mph - N/A   Clear
7:15 PM 78.8 °F - 69.8 °F 74% 29.81 in 10.0 mi SSE 12.7 mph - N/A   Clear
7:35 PM 78.8 °F - 69.8 °F 74% 29.81 in 10.0 mi SSE 13.8 mph 20.7 mph N/A   Clear
8:15 PM 77.0 °F - 68.0 °F 74% 29.81 in 10.0 mi SSE 11.5 mph - N/A   Clear
8:35 PM 75.2 °F - 68.0 °F 78% 29.82 in 10.0 mi SSE 11.5 mph 17.3 mph N/A   Clear
8:55 PM 75.2 °F - 68.0 °F 78% 29.82 in 10.0 mi SSE 13.8 mph - N/A   Clear
9:15 PM 73.4 °F - 68.0 °F 83% 29.82 in 10.0 mi SSE 12.7 mph - N/A   Clear
9:35 PM 73.4 °F - 68.0 °F 83% 29.83 in 10.0 mi SSE 10.4 mph - N/A   Clear
9:55 PM 73.4 °F - 68.0 °F 83% 29.82 in 10.0 mi SSE 11.5 mph - N/A   Clear
10:35 PM 71.6 °F - 68.0 °F 88% 29.83 in 10.0 mi SSE 8.1 mph - N/A   Clear
10:55 PM 71.6 °F - 68.0 °F 88% 29.83 in 10.0 mi SSE 11.5 mph - N/A   Clear
11:15 PM 71.6 °F - 68.0 °F 88% 29.83 in 10.0 mi SSE 11.5 mph - N/A   Clear
11:35 PM 73.4 °F - 68.0 °F 83% 29.83 in 10.0 mi SSE 11.5 mph 16.1 mph N/A   Clear
11:55 PM 71.6 °F - 68.0 °F 88% 29.82 in 10.0 mi SSE 10.4 mph - N/A   Clear